sensor_id;sensor_type;location;lat;lon;timestamp;P1;durP1;ratioP1;P2;durP2;ratioP2
32096;SDS011;18610;49.916;8.284;2022-09-27T00:01:22;0.93;;;0.50;;
32096;SDS011;18610;49.916;8.284;2022-09-27T00:03:52;1.05;;;0.50;;
32096;SDS011;18610;49.916;8.284;2022-09-27T00:06:21;0.88;;;0.43;;
32096;SDS011;18610;49.916;8.284;2022-09-27T00:08:50;1.17;;;0.57;;
32096;SDS011;18610;49.916;8.284;2022-09-27T00:11:19;1.30;;;0.60;;
32096;SDS011;18610;49.916;8.284;2022-09-27T00:13:51;2.17;;;0.65;;
32096;SDS011;18610;49.916;8.284;2022-09-27T00:16:20;0.60;;;0.60;;
32096;SDS011;18610;49.916;8.284;2022-09-27T00:18:47;1.33;;;0.50;;
32096;SDS011;18610;49.916;8.284;2022-09-27T00:21:14;0.50;;;0.50;;
32096;SDS011;18610;49.916;8.284;2022-09-27T00:23:41;1.35;;;0.57;;
32096;SDS011;18610;49.916;8.284;2022-09-27T00:26:09;0.90;;;0.47;;
32096;SDS011;18610;49.916;8.284;2022-09-27T00:28:37;0.47;;;0.47;;
32096;SDS011;18610;49.916;8.284;2022-09-27T00:31:04;0.60;;;0.60;;
32096;SDS011;18610;49.916;8.284;2022-09-27T00:33:43;0.65;;;0.55;;
32096;SDS011;18610;49.916;8.284;2022-09-27T00:36:10;0.50;;;0.50;;
32096;SDS011;18610;49.916;8.284;2022-09-27T00:38:39;1.35;;;0.50;;
32096;SDS011;18610;49.916;8.284;2022-09-27T00:41:06;0.70;;;0.70;;
32096;SDS011;18610;49.916;8.284;2022-09-27T00:43:42;2.28;;;0.73;;
32096;SDS011;18610;49.916;8.284;2022-09-27T00:46:11;2.08;;;0.80;;
32096;SDS011;18610;49.916;8.284;2022-09-27T00:48:43;4.40;;;0.98;;
32096;SDS011;18610;49.916;8.284;2022-09-27T00:51:12;0.63;;;0.63;;
32096;SDS011;18610;49.916;8.284;2022-09-27T00:53:40;0.73;;;0.60;;
32096;SDS011;18610;49.916;8.284;2022-09-27T00:58:43;1.73;;;0.63;;
32096;SDS011;18610;49.916;8.284;2022-09-27T01:01:13;5.33;;;0.60;;
32096;SDS011;18610;49.916;8.284;2022-09-27T01:03:42;1.02;;;0.50;;
32096;SDS011;18610;49.916;8.284;2022-09-27T01:06:14;3.85;;;0.98;;
32096;SDS011;18610;49.916;8.284;2022-09-27T01:08:43;4.40;;;0.90;;
32096;SDS011;18610;49.916;8.284;2022-09-27T01:11:16;4.55;;;0.65;;
32096;SDS011;18610;49.916;8.284;2022-09-27T01:13:58;2.00;;;0.82;;
32096;SDS011;18610;49.916;8.284;2022-09-27T01:16:35;2.00;;;0.90;;
32096;SDS011;18610;49.916;8.284;2022-09-27T01:19:14;3.92;;;1.20;;
32096;SDS011;18610;49.916;8.284;2022-09-27T01:21:58;5.97;;;1.38;;
32096;SDS011;18610;49.916;8.284;2022-09-27T01:30:31;1.38;;;1.10;;
32096;SDS011;18610;49.916;8.284;2022-09-27T01:33:07;2.88;;;1.00;;
32096;SDS011;18610;49.916;8.284;2022-09-27T01:35:42;5.00;;;1.92;;
32096;SDS011;18610;49.916;8.284;2022-09-27T01:38:18;9.68;;;1.45;;
32096;SDS011;18610;49.916;8.284;2022-09-27T01:40:51;4.95;;;1.75;;
32096;SDS011;18610;49.916;8.284;2022-09-27T01:43:25;5.63;;;1.17;;
32096;SDS011;18610;49.916;8.284;2022-09-27T01:48:27;10.52;;;1.80;;
32096;SDS011;18610;49.916;8.284;2022-09-27T01:51:01;9.23;;;1.60;;
32096;SDS011;18610;49.916;8.284;2022-09-27T01:53:32;9.15;;;1.95;;
32096;SDS011;18610;49.916;8.284;2022-09-27T01:56:02;12.68;;;2.35;;
32096;SDS011;18610;49.916;8.284;2022-09-27T01:58:35;5.78;;;1.38;;
32096;SDS011;18610;49.916;8.284;2022-09-27T02:01:07;10.35;;;2.00;;
32096;SDS011;18610;49.916;8.284;2022-09-27T02:03:36;7.13;;;1.52;;
32096;SDS011;18610;49.916;8.284;2022-09-27T02:06:09;6.53;;;1.55;;
32096;SDS011;18610;49.916;8.284;2022-09-27T02:08:40;4.30;;;1.13;;
32096;SDS011;18610;49.916;8.284;2022-09-27T02:11:11;6.70;;;1.57;;
32096;SDS011;18610;49.916;8.284;2022-09-27T02:13:39;11.38;;;1.90;;
32096;SDS011;18610;49.916;8.284;2022-09-27T02:16:15;8.63;;;1.95;;
32096;SDS011;18610;49.916;8.284;2022-09-27T02:18:53;10.35;;;1.67;;
32096;SDS011;18610;49.916;8.284;2022-09-27T02:21:30;11.80;;;1.80;;
32096;SDS011;18610;49.916;8.284;2022-09-27T02:24:03;6.63;;;1.30;;
32096;SDS011;18610;49.916;8.284;2022-09-27T02:26:35;5.55;;;1.30;;
32096;SDS011;18610;49.916;8.284;2022-09-27T02:29:06;6.32;;;2.13;;
32096;SDS011;18610;49.916;8.284;2022-09-27T02:31:38;3.55;;;1.00;;
32096;SDS011;18610;49.916;8.284;2022-09-27T02:34:06;9.90;;;1.83;;
32096;SDS011;18610;49.916;8.284;2022-09-27T02:36:36;6.50;;;1.50;;
32096;SDS011;18610;49.916;8.284;2022-09-27T02:39:03;2.83;;;1.05;;
32096;SDS011;18610;49.916;8.284;2022-09-27T02:41:30;4.53;;;1.15;;
32096;SDS011;18610;49.916;8.284;2022-09-27T02:43:58;8.80;;;1.38;;
32096;SDS011;18610;49.916;8.284;2022-09-27T02:49:32;6.57;;;1.25;;
32096;SDS011;18610;49.916;8.284;2022-09-27T02:52:12;2.58;;;1.17;;
32096;SDS011;18610;49.916;8.284;2022-09-27T02:54:50;3.40;;;1.20;;
32096;SDS011;18610;49.916;8.284;2022-09-27T02:57:27;5.93;;;1.75;;
32096;SDS011;18610;49.916;8.284;2022-09-27T03:00:03;2.47;;;1.05;;
32096;SDS011;18610;49.916;8.284;2022-09-27T03:02:36;4.63;;;1.20;;
32096;SDS011;18610;49.916;8.284;2022-09-27T03:05:09;6.88;;;1.25;;
32096;SDS011;18610;49.916;8.284;2022-09-27T03:07:42;1.55;;;1.02;;
32096;SDS011;18610;49.916;8.284;2022-09-27T03:10:14;2.95;;;1.10;;
32096;SDS011;18610;49.916;8.284;2022-09-27T03:12:42;3.38;;;0.95;;
32096;SDS011;18610;49.916;8.284;2022-09-27T03:15:09;1.80;;;0.77;;
32096;SDS011;18610;49.916;8.284;2022-09-27T03:17:37;5.25;;;1.00;;
32096;SDS011;18610;49.916;8.284;2022-09-27T03:20:04;7.40;;;0.65;;
32096;SDS011;18610;49.916;8.284;2022-09-27T03:22:32;0.68;;;0.40;;
32096;SDS011;18610;49.916;8.284;2022-09-27T03:25:00;2.65;;;0.65;;
32096;SDS011;18610;49.916;8.284;2022-09-27T03:27:27;2.20;;;0.40;;
32096;SDS011;18610;49.916;8.284;2022-09-27T03:29:54;2.60;;;0.50;;
32096;SDS011;18610;49.916;8.284;2022-09-27T03:32:21;2.20;;;0.52;;
32096;SDS011;18610;49.916;8.284;2022-09-27T03:34:50;2.40;;;0.57;;
32096;SDS011;18610;49.916;8.284;2022-09-27T03:37:19;9.70;;;0.50;;
32096;SDS011;18610;49.916;8.284;2022-09-27T03:39:46;2.05;;;0.50;;
32096;SDS011;18610;49.916;8.284;2022-09-27T03:42:13;0.40;;;0.40;;
32096;SDS011;18610;49.916;8.284;2022-09-27T03:44:40;1.35;;;0.68;;
32096;SDS011;18610;49.916;8.284;2022-09-27T03:47:07;1.00;;;0.40;;
32096;SDS011;18610;49.916;8.284;2022-09-27T03:49:33;0.80;;;0.77;;
32096;SDS011;18610;49.916;8.284;2022-09-27T03:52:02;0.60;;;0.50;;
32096;SDS011;18610;49.916;8.284;2022-09-27T03:54:29;0.77;;;0.47;;
32096;SDS011;18610;49.916;8.284;2022-09-27T03:56:56;1.55;;;0.40;;
32096;SDS011;18610;49.916;8.284;2022-09-27T03:59:23;0.75;;;0.40;;
32096;SDS011;18610;49.916;8.284;2022-09-27T04:01:50;0.70;;;0.40;;
32096;SDS011;18610;49.916;8.284;2022-09-27T04:04:17;4.22;;;1.60;;
32096;SDS011;18610;49.916;8.284;2022-09-27T04:06:44;5.47;;;0.60;;
32096;SDS011;18610;49.916;8.284;2022-09-27T04:09:12;4.20;;;0.50;;
32096;SDS011;18610;49.916;8.284;2022-09-27T04:11:39;3.72;;;0.50;;
32096;SDS011;18610;49.916;8.284;2022-09-27T04:14:06;0.63;;;0.40;;
32096;SDS011;18610;49.916;8.284;2022-09-27T04:16:37;1.15;;;0.70;;
32096;SDS011;18610;49.916;8.284;2022-09-27T04:19:04;0.55;;;0.50;;
32096;SDS011;18610;49.916;8.284;2022-09-27T04:21:31;0.55;;;0.40;;
32096;SDS011;18610;49.916;8.284;2022-09-27T04:23:58;1.58;;;0.88;;
32096;SDS011;18610;49.916;8.284;2022-09-27T04:26:27;1.25;;;0.32;;
32096;SDS011;18610;49.916;8.284;2022-09-27T04:28:53;1.17;;;0.50;;
32096;SDS011;18610;49.916;8.284;2022-09-27T04:31:21;1.63;;;0.35;;
32096;SDS011;18610;49.916;8.284;2022-09-27T04:33:48;2.88;;;0.57;;
32096;SDS011;18610;49.916;8.284;2022-09-27T04:36:16;2.33;;;0.40;;
32096;SDS011;18610;49.916;8.284;2022-09-27T04:38:53;4.88;;;0.70;;
32096;SDS011;18610;49.916;8.284;2022-09-27T04:41:20;2.55;;;0.47;;
32096;SDS011;18610;49.916;8.284;2022-09-27T04:43:49;4.43;;;0.70;;
32096;SDS011;18610;49.916;8.284;2022-09-27T04:46:17;0.85;;;0.57;;
32096;SDS011;18610;49.916;8.284;2022-09-27T04:48:44;1.08;;;0.85;;
32096;SDS011;18610;49.916;8.284;2022-09-27T04:51:11;13.57;;;0.82;;
32096;SDS011;18610;49.916;8.284;2022-09-27T04:53:40;6.40;;;1.13;;
32096;SDS011;18610;49.916;8.284;2022-09-27T04:56:07;2.28;;;1.25;;
32096;SDS011;18610;49.916;8.284;2022-09-27T04:58:34;2.55;;;2.00;;
32096;SDS011;18610;49.916;8.284;2022-09-27T05:01:02;1.15;;;0.80;;
32096;SDS011;18610;49.916;8.284;2022-09-27T05:03:30;2.42;;;1.08;;
32096;SDS011;18610;49.916;8.284;2022-09-27T05:05:57;1.42;;;0.95;;
32096;SDS011;18610;49.916;8.284;2022-09-27T05:08:24;2.17;;;0.70;;
32096;SDS011;18610;49.916;8.284;2022-09-27T05:10:52;4.20;;;0.60;;
32096;SDS011;18610;49.916;8.284;2022-09-27T05:13:19;8.52;;;0.80;;
32096;SDS011;18610;49.916;8.284;2022-09-27T05:15:47;2.70;;;0.80;;
32096;SDS011;18610;49.916;8.284;2022-09-27T05:18:15;0.52;;;0.52;;
32096;SDS011;18610;49.916;8.284;2022-09-27T05:20:43;1.83;;;1.08;;
32096;SDS011;18610;49.916;8.284;2022-09-27T05:23:09;5.13;;;0.70;;
32096;SDS011;18610;49.916;8.284;2022-09-27T05:25:36;0.55;;;0.55;;
32096;SDS011;18610;49.916;8.284;2022-09-27T05:28:03;1.13;;;0.77;;
32096;SDS011;18610;49.916;8.284;2022-09-27T05:30:30;9.15;;;1.10;;
32096;SDS011;18610;49.916;8.284;2022-09-27T05:32:57;5.60;;;3.28;;
32096;SDS011;18610;49.916;8.284;2022-09-27T05:35:25;1.60;;;1.10;;
32096;SDS011;18610;49.916;8.284;2022-09-27T05:37:52;4.85;;;2.95;;
32096;SDS011;18610;49.916;8.284;2022-09-27T05:40:20;2.88;;;1.52;;
32096;SDS011;18610;49.916;8.284;2022-09-27T05:42:49;3.05;;;0.98;;
32096;SDS011;18610;49.916;8.284;2022-09-27T05:45:16;8.23;;;1.50;;
32096;SDS011;18610;49.916;8.284;2022-09-27T05:47:51;0.88;;;0.57;;
32096;SDS011;18610;49.916;8.284;2022-09-27T05:50:19;2.40;;;1.25;;
32096;SDS011;18610;49.916;8.284;2022-09-27T05:52:47;3.70;;;0.80;;
32096;SDS011;18610;49.916;8.284;2022-09-27T05:55:14;2.95;;;0.82;;
32096;SDS011;18610;49.916;8.284;2022-09-27T05:57:41;3.50;;;0.75;;
32096;SDS011;18610;49.916;8.284;2022-09-27T06:00:17;1.35;;;0.60;;
32096;SDS011;18610;49.916;8.284;2022-09-27T06:02:44;4.68;;;1.40;;
32096;SDS011;18610;49.916;8.284;2022-09-27T06:05:18;1.30;;;0.57;;
32096;SDS011;18610;49.916;8.284;2022-09-27T06:07:47;0.60;;;0.60;;
32096;SDS011;18610;49.916;8.284;2022-09-27T06:10:14;1.98;;;1.15;;
32096;SDS011;18610;49.916;8.284;2022-09-27T06:12:43;3.72;;;1.45;;
32096;SDS011;18610;49.916;8.284;2022-09-27T06:15:10;5.28;;;0.70;;
32096;SDS011;18610;49.916;8.284;2022-09-27T06:17:38;0.73;;;0.73;;
32096;SDS011;18610;49.916;8.284;2022-09-27T06:20:05;3.35;;;0.70;;
32096;SDS011;18610;49.916;8.284;2022-09-27T06:22:33;1.15;;;0.80;;
32096;SDS011;18610;49.916;8.284;2022-09-27T06:25:03;2.53;;;0.55;;
32096;SDS011;18610;49.916;8.284;2022-09-27T06:27:30;0.68;;;0.45;;
32096;SDS011;18610;49.916;8.284;2022-09-27T06:29:57;1.05;;;0.65;;
32096;SDS011;18610;49.916;8.284;2022-09-27T06:32:24;0.52;;;0.47;;
32096;SDS011;18610;49.916;8.284;2022-09-27T06:34:51;0.55;;;0.47;;
32096;SDS011;18610;49.916;8.284;2022-09-27T06:37:18;2.05;;;0.60;;
32096;SDS011;18610;49.916;8.284;2022-09-27T06:39:45;2.25;;;0.70;;
32096;SDS011;18610;49.916;8.284;2022-09-27T06:42:14;2.75;;;0.90;;
32096;SDS011;18610;49.916;8.284;2022-09-27T06:44:42;0.80;;;0.70;;
32096;SDS011;18610;49.916;8.284;2022-09-27T06:47:08;1.95;;;0.60;;
32096;SDS011;18610;49.916;8.284;2022-09-27T06:49:36;8.90;;;4.25;;
32096;SDS011;18610;49.916;8.284;2022-09-27T06:52:04;4.63;;;1.20;;
32096;SDS011;18610;49.916;8.284;2022-09-27T06:54:31;0.80;;;0.77;;
32096;SDS011;18610;49.916;8.284;2022-09-27T06:56:58;0.95;;;0.95;;
32096;SDS011;18610;49.916;8.284;2022-09-27T06:59:26;13.45;;;6.95;;
32096;SDS011;18610;49.916;8.284;2022-09-27T07:02:10;9.23;;;6.07;;
32096;SDS011;18610;49.916;8.284;2022-09-27T07:04:38;43.67;;;22.45;;
32096;SDS011;18610;49.916;8.284;2022-09-27T07:07:05;8.18;;;6.32;;
32096;SDS011;18610;49.916;8.284;2022-09-27T07:09:33;4.50;;;1.92;;
32096;SDS011;18610;49.916;8.284;2022-09-27T07:12:00;3.28;;;0.75;;
32096;SDS011;18610;49.916;8.284;2022-09-27T07:14:28;5.32;;;2.83;;
32096;SDS011;18610;49.916;8.284;2022-09-27T07:16:55;8.95;;;2.25;;
32096;SDS011;18610;49.916;8.284;2022-09-27T07:19:22;3.63;;;1.40;;
32096;SDS011;18610;49.916;8.284;2022-09-27T07:21:49;4.53;;;1.77;;
32096;SDS011;18610;49.916;8.284;2022-09-27T07:24:16;4.65;;;1.40;;
32096;SDS011;18610;49.916;8.284;2022-09-27T07:26:43;1.17;;;0.82;;
32096;SDS011;18610;49.916;8.284;2022-09-27T07:29:12;2.53;;;1.60;;
32096;SDS011;18610;49.916;8.284;2022-09-27T07:31:41;1.75;;;1.52;;
32096;SDS011;18610;49.916;8.284;2022-09-27T07:34:07;2.35;;;1.00;;
32096;SDS011;18610;49.916;8.284;2022-09-27T07:36:36;2.28;;;0.90;;
32096;SDS011;18610;49.916;8.284;2022-09-27T07:39:03;7.43;;;1.52;;
32096;SDS011;18610;49.916;8.284;2022-09-27T07:41:30;3.50;;;0.82;;
32096;SDS011;18610;49.916;8.284;2022-09-27T07:43:57;2.00;;;0.80;;
32096;SDS011;18610;49.916;8.284;2022-09-27T07:46:24;6.00;;;2.47;;
32096;SDS011;18610;49.916;8.284;2022-09-27T07:48:53;6.50;;;0.98;;
32096;SDS011;18610;49.916;8.284;2022-09-27T07:51:20;1.40;;;1.15;;
32096;SDS011;18610;49.916;8.284;2022-09-27T07:53:47;3.90;;;0.85;;
32096;SDS011;18610;49.916;8.284;2022-09-27T07:56:14;4.20;;;2.22;;
32096;SDS011;18610;49.916;8.284;2022-09-27T07:58:40;4.82;;;0.98;;
32096;SDS011;18610;49.916;8.284;2022-09-27T08:01:07;8.38;;;2.55;;
32096;SDS011;18610;49.916;8.284;2022-09-27T08:03:35;2.17;;;1.13;;
32096;SDS011;18610;49.916;8.284;2022-09-27T08:06:03;1.60;;;0.95;;
32096;SDS011;18610;49.916;8.284;2022-09-27T08:08:30;9.63;;;1.92;;
32096;SDS011;18610;49.916;8.284;2022-09-27T08:10:57;2.40;;;1.05;;
32096;SDS011;18610;49.916;8.284;2022-09-27T08:13:24;2.30;;;1.20;;
32096;SDS011;18610;49.916;8.284;2022-09-27T08:15:51;4.03;;;1.30;;
32096;SDS011;18610;49.916;8.284;2022-09-27T08:18:18;4.10;;;0.88;;
32096;SDS011;18610;49.916;8.284;2022-09-27T08:20:48;5.18;;;0.80;;
32096;SDS011;18610;49.916;8.284;2022-09-27T08:23:16;2.60;;;0.70;;
32096;SDS011;18610;49.916;8.284;2022-09-27T08:25:43;4.57;;;0.70;;
32096;SDS011;18610;49.916;8.284;2022-09-27T08:28:17;5.28;;;0.70;;
32096;SDS011;18610;49.916;8.284;2022-09-27T08:30:44;4.65;;;0.95;;
32096;SDS011;18610;49.916;8.284;2022-09-27T08:33:11;1.70;;;0.77;;
32096;SDS011;18610;49.916;8.284;2022-09-27T08:35:38;5.60;;;1.20;;
32096;SDS011;18610;49.916;8.284;2022-09-27T08:38:05;4.05;;;0.88;;
32096;SDS011;18610;49.916;8.284;2022-09-27T08:40:38;4.65;;;1.13;;
32096;SDS011;18610;49.916;8.284;2022-09-27T08:43:16;3.28;;;0.60;;
32096;SDS011;18610;49.916;8.284;2022-09-27T08:45:56;7.70;;;3.35;;
32096;SDS011;18610;49.916;8.284;2022-09-27T08:48:43;6.82;;;1.65;;
32096;SDS011;18610;49.916;8.284;2022-09-27T08:51:15;2.03;;;0.93;;
32096;SDS011;18610;49.916;8.284;2022-09-27T08:53:47;5.10;;;0.97;;
32096;SDS011;18610;49.916;8.284;2022-09-27T08:56:19;2.85;;;0.93;;
32096;SDS011;18610;49.916;8.284;2022-09-27T08:58:48;1.63;;;0.80;;
32096;SDS011;18610;49.916;8.284;2022-09-27T09:01:17;3.58;;;0.63;;
32096;SDS011;18610;49.916;8.284;2022-09-27T09:03:46;6.28;;;0.90;;
32096;SDS011;18610;49.916;8.284;2022-09-27T09:06:16;0.65;;;0.60;;
32096;SDS011;18610;49.916;8.284;2022-09-27T09:08:50;3.47;;;0.80;;
32096;SDS011;18610;49.916;8.284;2022-09-27T09:11:33;2.05;;;0.52;;
32096;SDS011;18610;49.916;8.284;2022-09-27T09:17:26;3.15;;;0.88;;
32096;SDS011;18610;49.916;8.284;2022-09-27T09:20:10;1.65;;;0.95;;
32096;SDS011;18610;49.916;8.284;2022-09-27T09:25:46;2.47;;;0.55;;
32096;SDS011;18610;49.916;8.284;2022-09-27T09:28:23;0.65;;;0.47;;
32096;SDS011;18610;49.916;8.284;2022-09-27T09:30:59;0.40;;;0.40;;
32096;SDS011;18610;49.916;8.284;2022-09-27T09:33:33;2.65;;;0.50;;
32096;SDS011;18610;49.916;8.284;2022-09-27T09:36:04;1.98;;;0.82;;
32096;SDS011;18610;49.916;8.284;2022-09-27T09:38:37;1.33;;;0.40;;
32096;SDS011;18610;49.916;8.284;2022-09-27T09:41:10;0.98;;;0.50;;
32096;SDS011;18610;49.916;8.284;2022-09-27T09:43:45;1.48;;;0.80;;
32096;SDS011;18610;49.916;8.284;2022-09-27T09:46:17;1.65;;;0.45;;
32096;SDS011;18610;49.916;8.284;2022-09-27T09:48:48;3.33;;;0.57;;
32096;SDS011;18610;49.916;8.284;2022-09-27T09:51:20;3.10;;;0.50;;
32096;SDS011;18610;49.916;8.284;2022-09-27T09:53:52;1.65;;;0.57;;
32096;SDS011;18610;49.916;8.284;2022-09-27T09:56:23;1.67;;;0.40;;
32096;SDS011;18610;49.916;8.284;2022-09-27T09:58:56;2.13;;;0.50;;
32096;SDS011;18610;49.916;8.284;2022-09-27T10:01:26;3.63;;;0.50;;
32096;SDS011;18610;49.916;8.284;2022-09-27T10:03:59;0.43;;;0.40;;
32096;SDS011;18610;49.916;8.284;2022-09-27T10:06:26;2.08;;;0.40;;
32096;SDS011;18610;49.916;8.284;2022-09-27T10:08:55;1.33;;;0.47;;
32096;SDS011;18610;49.916;8.284;2022-09-27T10:11:23;0.73;;;0.47;;
32096;SDS011;18610;49.916;8.284;2022-09-27T10:13:51;0.50;;;0.40;;
32096;SDS011;18610;49.916;8.284;2022-09-27T10:16:21;4.03;;;1.90;;
32096;SDS011;18610;49.916;8.284;2022-09-27T10:18:54;38.00;;;17.35;;
32096;SDS011;18610;49.916;8.284;2022-09-27T10:21:27;35.65;;;14.05;;
32096;SDS011;18610;49.916;8.284;2022-09-27T10:24:03;120.50;;;48.85;;
32096;SDS011;18610;49.916;8.284;2022-09-27T10:26:32;82.88;;;33.10;;
32096;SDS011;18610;49.916;8.284;2022-09-27T10:29:12;190.00;;;74.28;;
32096;SDS011;18610;49.916;8.284;2022-09-27T10:31:51;102.40;;;36.28;;
32096;SDS011;18610;49.916;8.284;2022-09-27T10:34:20;4.70;;;2.25;;
32096;SDS011;18610;49.916;8.284;2022-09-27T10:37:00;3.10;;;0.70;;
32096;SDS011;18610;49.916;8.284;2022-09-27T10:39:32;1.95;;;1.25;;
32096;SDS011;18610;49.916;8.284;2022-09-27T10:42:01;1.63;;;0.95;;
32096;SDS011;18610;49.916;8.284;2022-09-27T10:44:28;4.22;;;0.85;;
32096;SDS011;18610;49.916;8.284;2022-09-27T10:46:58;1.83;;;0.98;;
32096;SDS011;18610;49.916;8.284;2022-09-27T10:49:31;2.20;;;0.90;;
32096;SDS011;18610;49.916;8.284;2022-09-27T10:52:01;1.50;;;0.80;;
32096;SDS011;18610;49.916;8.284;2022-09-27T10:54:31;1.02;;;0.77;;
32096;SDS011;18610;49.916;8.284;2022-09-27T10:57:00;3.47;;;1.10;;
32096;SDS011;18610;49.916;8.284;2022-09-27T10:59:30;1.17;;;0.52;;
32096;SDS011;18610;49.916;8.284;2022-09-27T11:02:02;2.10;;;0.75;;
32096;SDS011;18610;49.916;8.284;2022-09-27T11:04:31;6.53;;;0.93;;
32096;SDS011;18610;49.916;8.284;2022-09-27T11:07:13;4.90;;;1.30;;
32096;SDS011;18610;49.916;8.284;2022-09-27T11:09:46;4.72;;;1.45;;
32096;SDS011;18610;49.916;8.284;2022-09-27T11:12:15;2.97;;;1.10;;
32096;SDS011;18610;49.916;8.284;2022-09-27T11:14:46;4.45;;;0.98;;
32096;SDS011;18610;49.916;8.284;2022-09-27T11:17:23;3.92;;;0.93;;
32096;SDS011;18610;49.916;8.284;2022-09-27T11:20:02;5.78;;;0.90;;
32096;SDS011;18610;49.916;8.284;2022-09-27T11:26:05;5.43;;;1.20;;
32096;SDS011;18610;49.916;8.284;2022-09-27T11:28:46;2.47;;;1.05;;
32096;SDS011;18610;49.916;8.284;2022-09-27T11:31:23;7.68;;;1.00;;
32096;SDS011;18610;49.916;8.284;2022-09-27T11:37:02;3.85;;;1.15;;
32096;SDS011;18610;49.916;8.284;2022-09-27T11:39:41;7.65;;;1.00;;
32096;SDS011;18610;49.916;8.284;2022-09-27T11:42:27;5.35;;;1.50;;
32096;SDS011;18610;49.916;8.284;2022-09-27T11:45:22;3.53;;;0.95;;
32096;SDS011;18610;49.916;8.284;2022-09-27T11:48:03;2.28;;;0.80;;
32096;SDS011;18610;49.916;8.284;2022-09-27T11:50:47;3.28;;;1.00;;
32096;SDS011;18610;49.916;8.284;2022-09-27T11:53:25;3.35;;;1.08;;
32096;SDS011;18610;49.916;8.284;2022-09-27T11:56:02;6.05;;;1.10;;
32096;SDS011;18610;49.916;8.284;2022-09-27T11:58:39;4.28;;;1.02;;
32096;SDS011;18610;49.916;8.284;2022-09-27T12:01:15;3.70;;;1.08;;
32096;SDS011;18610;49.916;8.284;2022-09-27T12:06:51;9.40;;;2.63;;
32096;SDS011;18610;49.916;8.284;2022-09-27T12:09:27;3.83;;;1.20;;
32096;SDS011;18610;49.916;8.284;2022-09-27T12:11:57;9.63;;;3.70;;
32096;SDS011;18610;49.916;8.284;2022-09-27T12:14:27;5.00;;;1.20;;
32096;SDS011;18610;49.916;8.284;2022-09-27T12:17:01;9.07;;;3.38;;
32096;SDS011;18610;49.916;8.284;2022-09-27T12:19:31;11.43;;;5.28;;
32096;SDS011;18610;49.916;8.284;2022-09-27T12:22:04;6.53;;;2.08;;
32096;SDS011;18610;49.916;8.284;2022-09-27T12:24:36;10.30;;;4.63;;
32096;SDS011;18610;49.916;8.284;2022-09-27T12:27:06;5.65;;;2.45;;
32096;SDS011;18610;49.916;8.284;2022-09-27T12:29:38;5.47;;;3.10;;
32096;SDS011;18610;49.916;8.284;2022-09-27T12:32:09;17.80;;;5.93;;
32096;SDS011;18610;49.916;8.284;2022-09-27T12:34:43;11.65;;;4.68;;
32096;SDS011;18610;49.916;8.284;2022-09-27T12:37:17;9.35;;;3.70;;
32096;SDS011;18610;49.916;8.284;2022-09-27T12:39:47;3.95;;;1.55;;
32096;SDS011;18610;49.916;8.284;2022-09-27T12:42:19;14.80;;;4.53;;
32096;SDS011;18610;49.916;8.284;2022-09-27T12:44:49;9.13;;;3.72;;
32096;SDS011;18610;49.916;8.284;2022-09-27T12:50:05;13.23;;;4.90;;
32096;SDS011;18610;49.916;8.284;2022-09-27T12:52:42;7.20;;;2.10;;
32096;SDS011;18610;49.916;8.284;2022-09-27T12:55:21;3.83;;;2.45;;
32096;SDS011;18610;49.916;8.284;2022-09-27T12:58:17;8.38;;;2.28;;
32096;SDS011;18610;49.916;8.284;2022-09-27T13:01:02;2.63;;;1.63;;
32096;SDS011;18610;49.916;8.284;2022-09-27T13:03:47;1.65;;;1.45;;
32096;SDS011;18610;49.916;8.284;2022-09-27T13:09:42;10.25;;;5.45;;
32096;SDS011;18610;49.916;8.284;2022-09-27T13:12:22;6.05;;;2.78;;
32096;SDS011;18610;49.916;8.284;2022-09-27T13:14:56;5.47;;;1.65;;
32096;SDS011;18610;49.916;8.284;2022-09-27T13:20:36;3.83;;;1.98;;
32096;SDS011;18610;49.916;8.284;2022-09-27T13:26:43;6.07;;;1.60;;
32096;SDS011;18610;49.916;8.284;2022-09-27T13:29:23;7.50;;;3.50;;
32096;SDS011;18610;49.916;8.284;2022-09-27T13:32:07;8.32;;;5.68;;
32096;SDS011;18610;49.916;8.284;2022-09-27T13:34:46;3.50;;;2.05;;
32096;SDS011;18610;49.916;8.284;2022-09-27T13:43:04;5.88;;;1.00;;
32096;SDS011;18610;49.916;8.284;2022-09-27T13:45:52;2.10;;;1.30;;
32096;SDS011;18610;49.916;8.284;2022-09-27T13:48:23;0.88;;;0.80;;
32096;SDS011;18610;49.916;8.284;2022-09-27T13:50:57;3.10;;;1.20;;
32096;SDS011;18610;49.916;8.284;2022-09-27T13:53:27;2.58;;;0.68;;
32096;SDS011;18610;49.916;8.284;2022-09-27T13:55:58;3.40;;;0.90;;
32096;SDS011;18610;49.916;8.284;2022-09-27T13:58:31;1.80;;;0.77;;
32096;SDS011;18610;49.916;8.284;2022-09-27T14:01:04;3.17;;;1.27;;
32096;SDS011;18610;49.916;8.284;2022-09-27T14:03:53;4.65;;;1.30;;
32096;SDS011;18610;49.916;8.284;2022-09-27T14:06:25;2.17;;;0.90;;
32096;SDS011;18610;49.916;8.284;2022-09-27T14:08:55;1.95;;;0.93;;
32096;SDS011;18610;49.916;8.284;2022-09-27T14:11:24;5.85;;;1.63;;
32096;SDS011;18610;49.916;8.284;2022-09-27T14:13:55;4.07;;;0.98;;
32096;SDS011;18610;49.916;8.284;2022-09-27T14:16:23;4.32;;;0.90;;
32096;SDS011;18610;49.916;8.284;2022-09-27T14:18:56;7.75;;;1.00;;
32096;SDS011;18610;49.916;8.284;2022-09-27T14:21:27;4.68;;;0.95;;
32096;SDS011;18610;49.916;8.284;2022-09-27T14:27:05;4.85;;;1.05;;
32096;SDS011;18610;49.916;8.284;2022-09-27T14:29:39;2.78;;;1.10;;
32096;SDS011;18610;49.916;8.284;2022-09-27T14:32:09;0.98;;;0.47;;
32096;SDS011;18610;49.916;8.284;2022-09-27T14:34:37;2.30;;;0.57;;
32096;SDS011;18610;49.916;8.284;2022-09-27T14:37:05;2.03;;;0.65;;
32096;SDS011;18610;49.916;8.284;2022-09-27T14:39:54;3.50;;;1.15;;
32096;SDS011;18610;49.916;8.284;2022-09-27T14:42:24;2.95;;;1.00;;
32096;SDS011;18610;49.916;8.284;2022-09-27T14:44:54;3.88;;;0.70;;
32096;SDS011;18610;49.916;8.284;2022-09-27T14:47:26;3.67;;;0.80;;
32096;SDS011;18610;49.916;8.284;2022-09-27T14:49:54;1.92;;;1.05;;
32096;SDS011;18610;49.916;8.284;2022-09-27T14:52:24;3.08;;;1.33;;
32096;SDS011;18610;49.916;8.284;2022-09-27T14:54:59;4.00;;;1.60;;
32096;SDS011;18610;49.916;8.284;2022-09-27T14:57:28;1.15;;;1.05;;
32096;SDS011;18610;49.916;8.284;2022-09-27T14:59:59;6.32;;;0.85;;
32096;SDS011;18610;49.916;8.284;2022-09-27T15:02:38;5.00;;;1.30;;
32096;SDS011;18610;49.916;8.284;2022-09-27T15:05:11;4.43;;;1.15;;
32096;SDS011;18610;49.916;8.284;2022-09-27T15:07:39;3.90;;;1.23;;
32096;SDS011;18610;49.916;8.284;2022-09-27T15:10:10;4.38;;;1.20;;
32096;SDS011;18610;49.916;8.284;2022-09-27T15:12:40;4.18;;;1.05;;
32096;SDS011;18610;49.916;8.284;2022-09-27T15:15:11;2.72;;;1.20;;
32096;SDS011;18610;49.916;8.284;2022-09-27T15:17:42;3.58;;;1.10;;
32096;SDS011;18610;49.916;8.284;2022-09-27T15:20:19;4.43;;;1.60;;
32096;SDS011;18610;49.916;8.284;2022-09-27T15:22:50;3.25;;;1.20;;
32096;SDS011;18610;49.916;8.284;2022-09-27T15:25:19;2.58;;;1.13;;
32096;SDS011;18610;49.916;8.284;2022-09-27T15:27:49;2.67;;;1.23;;
32096;SDS011;18610;49.916;8.284;2022-09-27T15:30:23;1.25;;;0.55;;
32096;SDS011;18610;49.916;8.284;2022-09-27T15:32:51;1.13;;;0.88;;
32096;SDS011;18610;49.916;8.284;2022-09-27T15:35:22;9.45;;;0.75;;
32096;SDS011;18610;49.916;8.284;2022-09-27T15:37:51;4.65;;;0.90;;
32096;SDS011;18610;49.916;8.284;2022-09-27T15:43:37;2.08;;;0.90;;
32096;SDS011;18610;49.916;8.284;2022-09-27T15:46:26;1.55;;;0.65;;
32096;SDS011;18610;49.916;8.284;2022-09-27T15:49:20;0.77;;;0.55;;
32096;SDS011;18610;49.916;8.284;2022-09-27T15:51:54;2.30;;;0.75;;
32096;SDS011;18610;49.916;8.284;2022-09-27T15:54:23;5.13;;;1.13;;
32096;SDS011;18610;49.916;8.284;2022-09-27T15:56:54;4.38;;;0.88;;
32096;SDS011;18610;49.916;8.284;2022-09-27T15:59:24;2.80;;;0.80;;
32096;SDS011;18610;49.916;8.284;2022-09-27T16:01:55;1.35;;;0.75;;
32096;SDS011;18610;49.916;8.284;2022-09-27T16:04:22;2.83;;;0.98;;